Time;durP1;ratioP1;P1;durP2;ratioP2;P2;SDS_P1;SDS_P2;PMS_P1;PMS_P2;Temp;Humidity;BMP_temperature;BMP_pressure;BME280_temperature;BME280_humidity;BME280_pressure;Samples;Min_cycle;Max_cycle;Signal;HPM_P1;HPM_P2
2021/06/23 00:00:46;;;;;;;18.60;13.07;;;17.70;99.90;;;;;;5062709;28;20025;-67
2021/06/23 00:03:11;;;;;;;17.05;12.32;;;17.80;99.90;;;;;;5058197;28;20036;-67
2021/06/23 00:05:37;;;;;;;15.60;12.40;;;17.80;99.90;;;;;;5060573;28;20112;-67
2021/06/23 00:08:03;;;;;;;17.35;11.82;;;17.80;99.90;;;;;;5097751;22;20512;-68
2021/06/23 00:10:28;;;;;;;12.23;10.80;;;17.90;99.90;;;;;;5116920;28;20028;-68
2021/06/23 00:12:54;;;;;;;14.18;11.57;;;17.90;99.90;;;;;;5116955;28;20060;-68
2021/06/23 00:15:21;;;;;;;14.23;12.00;;;18.00;99.90;;;;;;5098823;28;20091;-69
2021/06/23 00:17:47;;;;;;;12.32;10.73;;;18.00;99.90;;;;;;5116939;28;20032;-69
2021/06/23 00:20:14;;;;;;;13.52;11.38;;;18.00;99.90;;;;;;5098520;28;20390;-69
2021/06/23 00:22:39;;;;;;;15.88;11.38;;;18.10;99.90;;;;;;5117373;28;20035;-69
2021/06/23 00:25:06;;;;;;;14.80;12.13;;;18.10;99.90;;;;;;5116467;28;20024;-69
2021/06/23 00:27:31;;;;;;;16.17;11.60;;;18.10;99.90;;;;;;5098203;28;20024;-69
2021/06/23 00:29:57;;;;;;;14.32;11.40;;;18.10;99.90;;;;;;5116206;28;20396;-69
2021/06/23 00:32:23;;;;;;;13.13;11.13;;;18.10;99.90;;;;;;5116138;28;20026;-69
2021/06/23 00:34:49;;;;;;;13.10;11.27;;;18.20;99.90;;;;;;5115971;28;20016;-68
2021/06/23 00:37:15;;;;;;;15.18;11.60;;;18.20;99.90;;;;;;5097791;28;20019;-68
2021/06/23 00:39:40;;;;;;;18.20;12.48;;;18.10;99.90;;;;;;5097453;28;20024;-68
2021/06/23 00:42:11;;;;;;;16.55;11.90;;;18.10;99.90;;;;;;5097118;28;20368;-68
2021/06/23 00:44:40;;;;;;;16.73;12.57;;;18.00;99.90;;;;;;5115681;28;20020;-68
2021/06/23 00:47:06;;;;;;;17.77;12.23;;;18.00;99.90;;;;;;5097428;28;20019;-68
2021/06/23 00:49:33;;;;;;;;;;;18.00;99.90;;;;;;5097794;28;20027;-69
2021/06/23 00:52:00;;;;;;;14.35;12.27;;;18.00;99.90;;;;;;5115710;28;19904;-69
2021/06/23 00:54:27;;;;;;;15.05;11.50;;;18.00;99.90;;;;;;5115722;28;20024;-69
2021/06/23 00:56:55;;;;;;;14.75;11.27;;;18.00;99.90;;;;;;5097316;28;20044;-68
2021/06/23 00:59:21;;;;;;;13.98;11.18;;;18.10;99.90;;;;;;5115606;28;20028;-68
2021/06/23 01:01:47;;;;;;;14.68;11.60;;;18.10;99.90;;;;;;5116168;28;20028;-69
2021/06/23 01:04:14;;;;;;;16.48;11.98;;;18.20;99.90;;;;;;5115962;28;20063;-68
2021/06/23 01:06:40;;;;;;;18.73;11.52;;;18.20;99.90;;;;;;5115780;28;20020;-68
2021/06/23 01:09:05;;;;;;;13.70;12.20;;;18.20;99.90;;;;;;5115223;28;20528;-68
2021/06/23 01:11:44;;;;;;;14.52;12.13;;;18.20;99.90;;;;;;5115458;28;20475;-68
2021/06/23 01:14:12;;;;;;;16.70;12.65;;;18.20;99.90;;;;;;5115306;28;20110;-68
2021/06/23 01:16:39;;;;;;;14.43;11.65;;;18.20;99.90;;;;;;5115324;28;20019;-68
2021/06/23 01:19:10;;;;;;;18.00;12.75;;;18.10;99.90;;;;;;5097334;28;20460;-68
2021/06/23 01:21:36;;;;;;;18.75;13.30;;;18.00;99.90;;;;;;5115088;28;20023;-68
2021/06/23 01:24:03;;;;;;;17.20;12.32;;;18.00;99.90;;;;;;5114917;28;20109;-69
2021/06/23 01:26:28;;;;;;;;;;;18.00;99.90;;;;;;5097315;28;20462;-69
2021/06/23 01:28:54;;;;;;;19.88;14.02;;;18.00;99.90;;;;;;5096818;28;19998;-69
2021/06/23 01:31:21;;;;;;;17.17;12.70;;;18.00;99.90;;;;;;5115419;28;20016;-69
2021/06/23 01:33:47;;;;;;;17.98;13.82;;;17.90;99.90;;;;;;5115073;28;20470;-69
2021/06/23 01:36:13;;;;;;;19.02;13.85;;;17.90;99.90;;;;;;5115711;28;20530;-69
2021/06/23 01:38:39;;;;;;;16.10;13.63;;;17.90;99.90;;;;;;5115515;28;20054;-69
2021/06/23 01:41:05;;;;;;;22.60;13.70;;;17.90;99.90;;;;;;5115098;28;20414;-69
2021/06/23 01:43:31;;;;;;;16.17;13.10;;;17.90;99.90;;;;;;5096677;28;20024;-69
2021/06/23 01:45:56;;;;;;;19.00;13.40;;;17.90;99.90;;;;;;5114646;28;20067;-69
2021/06/23 01:48:24;;;;;;;17.80;13.40;;;17.90;99.90;;;;;;5114428;28;20076;-69
2021/06/23 01:50:58;;;;;;;17.95;12.88;;;17.90;99.90;;;;;;5114520;28;20023;-69
2021/06/23 01:53:25;;;;;;;19.20;12.77;;;18.00;99.90;;;;;;5114492;28;20028;-68
2021/06/23 01:55:52;;;;;;;16.25;12.25;;;17.90;99.90;;;;;;5096784;28;20020;-69
2021/06/23 01:58:19;;;;;;;17.38;13.55;;;18.00;99.90;;;;;;5114894;28;20020;-68
2021/06/23 02:01:01;;;;;;;14.98;11.88;;;17.90;99.90;;;;;;5114673;28;20102;-68
2021/06/23 02:03:47;;;;;;;16.27;12.43;;;18.00;99.90;;;;;;5114527;28;20023;-68
2021/06/23 02:06:51;;;;;;;16.45;13.02;;;18.00;99.90;;;;;;5114380;28;20043;-69
2021/06/23 02:09:43;;;;;;;18.60;12.82;;;18.00;99.90;;;;;;5114041;28;20028;-68
2021/06/23 02:12:24;;;;;;;14.20;12.38;;;18.00;99.90;;;;;;5095957;28;20028;-69
2021/06/23 02:14:53;;;;;;;17.73;13.32;;;17.90;99.90;;;;;;5114459;28;20068;-68
2021/06/23 02:17:22;;;;;;;20.00;14.20;;;17.90;99.90;;;;;;5096274;28;20484;-69
2021/06/23 02:19:50;;;;;;;16.48;13.32;;;17.80;99.90;;;;;;5114186;28;20023;-70
2021/06/23 02:22:22;;;;;;;19.45;13.70;;;17.80;99.90;;;;;;5095853;28;20023;-69
2021/06/23 02:25:02;;;;;;;20.92;13.95;;;17.80;99.90;;;;;;5114545;28;20020;-69
2021/06/23 02:27:28;;;;;;;24.88;15.55;;;17.80;99.90;;;;;;5095790;28;20078;-69
2021/06/23 02:29:54;;;;;;;22.67;14.55;;;17.80;99.90;;;;;;5095819;28;20019;-69
2021/06/23 02:32:24;;;;;;;22.70;15.43;;;17.80;99.90;;;;;;5095593;28;20032;-68
2021/06/23 02:34:55;;;;;;;20.02;14.80;;;17.70;99.90;;;;;;5114082;28;20107;-69
2021/06/23 02:37:24;;;;;;;20.80;15.75;;;17.70;99.90;;;;;;5113832;28;20030;-69
2021/06/23 02:39:50;;;;;;;21.63;16.52;;;17.70;99.90;;;;;;5113887;28;20110;-69
2021/06/23 02:42:16;;;;;;;;;;;17.70;99.90;;;;;;5096021;28;20027;-68
2021/06/23 02:44:42;;;;;;;29.38;18.30;;;17.70;99.90;;;;;;5096060;28;19910;-69
2021/06/23 02:47:09;;;;;;;;;;;17.70;99.90;;;;;;5114024;28;20027;-69
2021/06/23 02:49:35;;;;;;;27.92;18.27;;;17.60;99.90;;;;;;5095238;28;20292;-69
2021/06/23 02:52:01;;;;;;;24.63;18.08;;;17.60;99.90;;;;;;5113645;28;20329;-68
2021/06/23 02:54:28;;;;;;;21.05;18.17;;;17.60;99.90;;;;;;5095224;28;20033;-69
2021/06/23 02:56:54;;;;;;;;;;;17.60;99.90;;;;;;5114683;28;20027;-69
2021/06/23 02:59:20;;;;;;;27.25;17.90;;;17.60;99.90;;;;;;5113402;28;20382;-68
2021/06/23 03:01:50;;;;;;;26.67;20.08;;;17.60;99.90;;;;;;5113361;28;20027;-68
2021/06/23 03:04:15;;;;;;;33.92;20.92;;;17.60;99.90;;;;;;5114186;28;20028;-69
2021/06/23 03:06:41;;;;;;;34.22;21.63;;;17.60;99.90;;;;;;5117665;28;20357;-68
2021/06/23 03:09:06;;;;;;;24.25;19.48;;;17.60;99.90;;;;;;5117269;28;20085;-68
2021/06/23 03:11:37;;;;;;;28.25;19.52;;;17.50;99.90;;;;;;5099144;28;20020;-68
2021/06/23 03:14:03;;;;;;;30.17;19.25;;;17.60;99.90;;;;;;5099018;28;20054;-69
2021/06/23 03:16:29;;;;;;;25.40;20.15;;;17.60;99.90;;;;;;5098933;28;20026;-68
2021/06/23 03:18:55;;;;;;;25.38;19.63;;;17.50;99.90;;;;;;5117137;28;20051;-68
2021/06/23 03:21:21;;;;;;;31.85;21.13;;;17.40;99.90;;;;;;5117019;28;20490;-68
2021/06/23 03:23:53;;;;;;;29.83;20.17;;;17.40;99.90;;;;;;5116992;28;20020;-68
2021/06/23 03:26:20;;;;;;;28.55;20.02;;;17.50;99.90;;;;;;5098567;28;20028;-68
2021/06/23 03:28:46;;;;;;;29.35;21.10;;;17.50;99.90;;;;;;5098416;28;20023;-68
2021/06/23 03:31:12;;;;;;;32.83;20.50;;;17.40;99.90;;;;;;5116744;28;20023;-69
2021/06/23 03:33:38;;;;;;;30.90;22.52;;;17.40;99.90;;;;;;5116974;28;20028;-69
2021/06/23 03:36:05;;;;;;;26.52;20.70;;;17.40;99.90;;;;;;5098390;28;20119;-69
2021/06/23 03:38:31;;;;;;;28.45;20.70;;;17.40;99.90;;;;;;5116531;28;20100;-69
2021/06/23 03:40:57;;;;;;;;;;;17.40;99.90;;;;;;5117204;28;20103;-69
2021/06/23 03:43:22;;;;;;;25.48;19.05;;;17.40;99.90;;;;;;5098295;28;19947;-69
2021/06/23 03:45:48;;;;;;;26.35;19.38;;;17.50;99.90;;;;;;5116637;28;20026;-69
2021/06/23 03:48:15;;;;;;;23.60;18.50;;;17.50;99.90;;;;;;5098140;28;20028;-68
2021/06/23 03:50:42;;;;;;;28.25;19.60;;;17.50;99.90;;;;;;5116601;28;20119;-68
2021/06/23 03:53:08;;;;;;;26.02;18.15;;;17.40;99.90;;;;;;5098098;28;20016;-67
2021/06/23 03:55:34;;;;;;;31.63;21.40;;;17.60;99.90;;;;;;5116782;28;20380;-69
2021/06/23 03:58:00;;;;;;;45.85;22.80;;;17.70;99.90;;;;;;5116630;28;20063;-66
2021/06/23 04:00:27;;;;;;;;;;;17.50;99.90;;;;;;5116804;28;20547;-67
2021/06/23 04:02:53;;;;;;;35.03;22.85;;;17.30;99.90;;;;;;5098649;28;19911;-67
2021/06/23 04:05:18;;;;;;;36.08;23.50;;;17.30;99.90;;;;;;5116169;28;20027;-67
2021/06/23 04:07:45;;;;;;;43.50;23.90;;;17.20;99.90;;;;;;5097523;28;20036;-67
2021/06/23 04:10:11;;;;;;;;;;;17.10;99.90;;;;;;5098380;28;20024;-68
2021/06/23 04:12:37;;;;;;;34.13;24.50;;;17.00;99.90;;;;;;5116057;28;20014;-68
2021/06/23 04:15:05;;;;;;;31.40;22.75;;;17.00;99.90;;;;;;5116036;28;20019;-68
2021/06/23 04:17:31;;;;;;;28.73;21.70;;;17.10;99.90;;;;;;5096816;28;20020;-68
2021/06/23 04:19:57;;;;;;;28.42;21.77;;;17.00;99.90;;;;;;5116607;28;20027;-68
2021/06/23 04:22:24;;;;;;;28.48;21.13;;;17.00;99.90;;;;;;5116046;28;20036;-68
2021/06/23 04:24:52;;;;;;;28.42;21.65;;;16.90;99.90;;;;;;5116344;28;20034;-68
2021/06/23 04:27:22;;;;;;;29.23;21.30;;;17.00;99.90;;;;;;5116256;28;20024;-68
2021/06/23 04:29:48;;;;;;;27.48;21.42;;;17.00;99.90;;;;;;5116155;28;20483;-68
2021/06/23 04:32:14;;;;;;;35.50;25.17;;;17.10;99.90;;;;;;5115859;28;20058;-68
2021/06/23 04:34:40;;;;;;;39.35;25.73;;;17.10;99.90;;;;;;5116171;28;20484;-69
2021/06/23 04:37:05;;;;;;;33.58;23.58;;;17.10;99.90;;;;;;5115782;28;20027;-68
2021/06/23 04:39:32;;;;;;;32.47;23.45;;;17.10;99.90;;;;;;5115599;28;20035;-68
2021/06/23 04:41:57;;;;;;;34.15;25.15;;;17.10;99.90;;;;;;5115413;28;20510;-72
2021/06/23 04:44:23;;;;;;;32.67;25.20;;;17.10;99.90;;;;;;5115415;28;20036;-67
2021/06/23 04:46:48;;;;;;;32.03;24.60;;;17.20;99.90;;;;;;5115349;28;20027;-67
2021/06/23 04:49:14;;;;;;;28.88;23.88;;;17.10;99.90;;;;;;5115354;28;20042;-67
2021/06/23 04:51:40;;;;;;;35.05;26.27;;;17.20;99.90;;;;;;5115300;28;20028;-67
2021/06/23 04:54:05;;;;;;;32.33;23.70;;;17.20;99.90;;;;;;5115428;28;20035;-67
2021/06/23 04:56:31;;;;;;;34.58;25.35;;;17.20;99.90;;;;;;5115689;28;20059;-67
2021/06/23 04:58:58;;;;;;;34.58;26.27;;;17.30;99.90;;;;;;5115262;28;20032;-67
2021/06/23 05:01:24;;;;;;;34.35;26.60;;;17.30;99.90;;;;;;5115160;28;20384;-67
2021/06/23 05:03:50;;;;;;;32.67;25.02;;;17.30;99.90;;;;;;5115586;28;20110;-67
2021/06/23 05:06:16;;;;;;;34.95;25.52;;;17.30;99.90;;;;;;5097259;28;20114;-67
2021/06/23 05:08:42;;;;;;;35.40;26.33;;;17.30;99.90;;;;;;5096985;28;20453;-66
2021/06/23 05:11:08;;;;;;;37.30;25.83;;;17.30;99.90;;;;;;5115101;28;20095;-71
2021/06/23 05:13:34;;;;;;;33.85;24.00;;;17.30;99.90;;;;;;5115162;28;20015;-69
2021/06/23 05:16:00;;;;;;;32.58;24.17;;;17.20;99.90;;;;;;5114953;28;20028;-69
2021/06/23 05:18:27;;;;;;;28.27;22.70;;;17.20;99.90;;;;;;5114945;28;20027;-69
2021/06/23 05:20:55;;;;;;;29.60;22.60;;;17.30;99.90;;;;;;5115258;28;20484;-69
2021/06/23 05:23:22;;;;;;;77.38;28.05;;;17.40;99.90;;;;;;5115224;28;20107;-70
2021/06/23 05:25:47;;;;;;;33.03;22.90;;;17.40;99.90;;;;;;5096804;28;20384;-69
2021/06/23 05:28:13;;;;;;;24.25;19.83;;;17.40;99.90;;;;;;5113378;28;20024;-69
2021/06/23 05:30:39;;;;;;;25.90;20.73;;;17.40;99.90;;;;;;5114154;28;20043;-70
2021/06/23 05:33:04;;;;;;;29.90;21.85;;;17.40;99.90;;;;;;5113355;28;20380;-69
2021/06/23 05:35:30;;;;;;;29.85;22.02;;;17.40;99.90;;;;;;5114858;28;20088;-69
2021/06/23 05:37:55;;;;;;;26.33;20.52;;;17.30;99.90;;;;;;5114580;28;20024;-69
2021/06/23 05:40:21;;;;;;;28.98;20.98;;;17.40;99.90;;;;;;5114917;28;20076;-69
2021/06/23 05:42:47;;;;;;;29.60;22.40;;;17.40;99.90;;;;;;5114622;28;20448;-69
2021/06/23 05:45:13;;;;;;;30.52;22.52;;;17.30;99.90;;;;;;5114559;28;20480;-69
2021/06/23 05:47:39;;;;;;;26.80;22.08;;;17.30;99.90;;;;;;5114466;28;20047;-69
2021/06/23 05:50:05;;;;;;;29.17;22.10;;;17.30;99.90;;;;;;5114646;28;20047;-69
2021/06/23 05:52:30;;;;;;;;;;;17.30;99.90;;;;;;5115117;28;20084;-70
2021/06/23 05:54:57;;;;;;;33.03;26.67;;;17.30;99.90;;;;;;5096089;28;19907;-69
2021/06/23 05:57:22;;;;;;;34.20;28.83;;;17.30;99.90;;;;;;5096136;28;20016;-69
2021/06/23 05:59:48;;;;;;;33.30;26.08;;;17.40;99.90;;;;;;5114345;28;20038;-69
2021/06/23 06:02:14;;;;;;;32.50;25.88;;;17.40;99.90;;;;;;5114565;28;20472;-68
2021/06/23 06:04:39;;;;;;;30.75;25.05;;;17.50;99.90;;;;;;5114604;28;20031;-69
2021/06/23 06:07:05;;;;;;;27.75;24.75;;;17.70;99.90;;;;;;5096147;28;20080;-69
2021/06/23 06:09:30;;;;;;;30.00;24.95;;;17.80;99.90;;;;;;5096203;28;20527;-68
2021/06/23 06:11:56;;;;;;;31.70;23.42;;;17.80;99.90;;;;;;5114041;28;20027;-68
2021/06/23 06:14:22;;;;;;;26.02;22.40;;;17.80;99.90;;;;;;5114339;28;20088;-68
2021/06/23 06:16:48;;;;;;;25.20;21.55;;;17.90;99.90;;;;;;5096086;28;20027;-68
2021/06/23 06:19:13;;;;;;;29.27;22.75;;;18.10;99.90;;;;;;5114687;28;20486;-67
2021/06/23 06:21:39;;;;;;;28.92;22.20;;;18.20;99.90;;;;;;5096106;28;20028;-68
2021/06/23 06:24:05;;;;;;;24.13;21.30;;;18.20;99.90;;;;;;5114223;28;20028;-67
2021/06/23 06:26:31;;;;;;;25.45;21.23;;;18.40;99.90;;;;;;5114175;28;20023;-68
2021/06/23 06:28:57;;;;;;;24.80;20.60;;;18.30;99.90;;;;;;5114021;28;20042;-68
2021/06/23 06:31:23;;;;;;;27.13;22.42;;;18.40;99.90;;;;;;5113957;28;20145;-68
2021/06/23 06:33:49;;;;;;;;;;;18.40;99.90;;;;;;5096109;28;20393;-68
2021/06/23 06:36:15;;;;;;;23.98;21.17;;;18.40;99.90;;;;;;5113820;28;20316;-68
2021/06/23 06:38:40;;;;;;;24.63;21.20;;;18.50;99.90;;;;;;5114268;27;20031;-68
2021/06/23 06:41:06;;;;;;;25.20;20.35;;;18.50;99.90;;;;;;5113955;28;20031;-68
2021/06/23 06:43:32;;;;;;;27.20;21.95;;;18.60;99.90;;;;;;5095525;28;20208;-67
2021/06/23 06:45:58;;;;;;;24.75;19.92;;;18.50;99.90;;;;;;5113923;28;20036;-68
2021/06/23 06:48:24;;;;;;;23.42;19.35;;;18.50;99.90;;;;;;5095296;28;20035;-68
2021/06/23 06:50:51;;;;;;;23.90;20.90;;;18.40;99.90;;;;;;5093147;28;20071;-68
2021/06/23 06:53:17;;;;;;;27.35;19.35;;;18.40;99.90;;;;;;5075337;28;20024;-70
2021/06/23 06:55:43;;;;;;;21.92;19.23;;;18.20;99.90;;;;;;5075260;28;20479;-68
2021/06/23 06:58:09;;;;;;;27.27;20.80;;;18.20;99.90;;;;;;5074787;28;20421;-68
2021/06/23 07:00:34;;;;;;;30.17;22.70;;;18.10;99.90;;;;;;5093765;28;20040;-69
2021/06/23 07:03:00;;;;;;;28.85;22.45;;;18.10;99.90;;;;;;5094105;28;20107;-69
2021/06/23 07:05:26;;;;;;;25.75;22.27;;;18.10;99.90;;;;;;5094277;28;20111;-70
2021/06/23 07:07:52;;;;;;;29.33;20.65;;;18.10;99.90;;;;;;5075322;28;20507;-69
2021/06/23 07:10:18;;;;;;;30.73;22.70;;;18.20;99.90;;;;;;5093443;28;20080;-69
2021/06/23 07:12:44;;;;;;;24.83;19.92;;;18.30;99.90;;;;;;5093717;28;20023;-69
2021/06/23 07:15:11;;;;;;;23.38;18.55;;;18.40;99.90;;;;;;5093572;28;20099;-69
2021/06/23 07:17:36;;;;;;;;;;;18.40;99.90;;;;;;5075724;28;20028;-67
2021/06/23 07:20:06;;;;;;;25.52;18.70;;;18.40;99.90;;;;;;5075376;28;20391;-69
2021/06/23 07:22:32;;;;;;;21.17;17.13;;;18.30;99.90;;;;;;5093272;28;20025;-68
2021/06/23 07:24:58;;;;;;;25.33;18.45;;;18.30;99.90;;;;;;5093121;28;20028;-69
2021/06/23 07:27:24;;;;;;;22.30;16.80;;;18.30;99.90;;;;;;5075084;28;20028;-69
2021/06/23 07:29:50;;;;;;;21.95;16.92;;;18.40;99.90;;;;;;5075182;28;20025;-68
2021/06/23 07:32:28;;;;;;;19.05;16.10;;;18.50;99.90;;;;;;5075115;28;20038;-69
2021/06/23 07:37:39;;;;;;;23.35;19.48;;;18.80;99.90;;;;;;5094215;28;20028;-68
2021/06/23 07:40:05;;;;;;;22.13;19.02;;;18.90;99.90;;;;;;5093758;28;20028;-68
2021/06/23 07:42:31;;;;;;;;;;;18.80;99.90;;;;;;5094089;28;20499;-68
2021/06/23 07:44:59;;;;;;;24.35;20.95;;;18.90;99.90;;;;;;5093863;28;19904;-68
2021/06/23 07:47:27;;;;;;;25.65;21.67;;;18.80;99.90;;;;;;5075258;28;20028;-69
2021/06/23 07:49:53;;;;;;;25.20;21.20;;;18.70;99.90;;;;;;5074826;28;20024;-68
2021/06/23 07:52:25;;;;;;;28.35;24.00;;;18.70;99.90;;;;;;5095864;28;20483;-68
2021/06/23 07:55:01;;;;;;;28.05;25.05;;;18.80;99.90;;;;;;5096844;28;20035;-69
2021/06/23 08:08:09;;;;;;;22.75;19.80;;;18.70;99.90;;;;;;5096988;28;20031;-69
2021/06/23 08:08:38;;;;;;;25.13;22.42;;;18.90;99.90;;;;;;5097163;28;20084;-69
2021/06/23 08:11:15;;;;;;;26.48;21.42;;;19.00;99.90;;;;;;5078619;28;20020;-69
2021/06/23 08:13:41;;;;;;;25.75;22.70;;;18.90;99.90;;;;;;5078383;28;20028;-69
2021/06/23 08:16:07;;;;;;;26.88;21.55;;;18.80;99.90;;;;;;5079266;28;20386;-69
2021/06/23 08:18:32;;;;;;;28.00;22.15;;;18.80;99.90;;;;;;5100374;28;20031;-69
2021/06/23 08:20:58;;;;;;;24.98;21.25;;;18.90;99.90;;;;;;5084643;28;20034;-68
2021/06/23 08:23:24;;;;;;;24.17;20.60;;;18.90;99.90;;;;;;5079440;28;20046;-68
2021/06/23 08:25:49;;;;;;;22.33;19.63;;;19.10;99.90;;;;;;5096572;28;20396;-69
2021/06/23 08:28:15;;;;;;;26.17;21.60;;;19.20;99.90;;;;;;5095904;28;20024;-69
2021/06/23 08:30:41;;;;;;;26.75;21.20;;;19.30;99.90;;;;;;5077853;28;20031;-68
2021/06/23 08:33:06;;;;;;;23.02;19.27;;;19.50;99.90;;;;;;5077692;28;20024;-68
2021/06/23 08:35:32;;;;;;;21.65;19.40;;;19.60;99.90;;;;;;5096334;28;20074;-68
2021/06/23 08:37:59;;;;;;;21.77;19.48;;;19.70;99.90;;;;;;5095751;28;20093;-69
2021/06/23 08:40:24;;;;;;;;;;;19.70;99.90;;;;;;5078304;28;20035;-68
2021/06/23 08:42:50;;;;;;;22.58;20.20;;;19.90;99.90;;;;;;5096104;28;19908;-68
2021/06/23 08:45:16;;;;;;;24.02;20.17;;;19.90;99.90;;;;;;5096462;28;20386;-68
2021/06/23 08:47:44;;;;;;;21.23;18.95;;;19.90;99.90;;;;;;5096781;28;20027;-68
2021/06/23 08:50:17;;;;;;;21.50;18.30;;;20.00;99.90;;;;;;5079103;28;20377;-68
2021/06/23 08:52:43;;;;;;;22.40;18.88;;;20.10;99.90;;;;;;5079178;28;20393;-68
2021/06/23 08:55:09;;;;;;;18.88;16.90;;;20.20;99.90;;;;;;5097627;28;20044;-69
2021/06/23 08:57:35;;;;;;;18.85;17.05;;;20.30;99.90;;;;;;5100653;28;20152;-68
2021/06/23 09:00:04;;;;;;;19.88;17.45;;;20.40;99.90;;;;;;5099387;28;20083;-68
2021/06/23 09:02:30;;;;;;;19.40;17.38;;;20.50;99.90;;;;;;5077439;28;20036;-69
2021/06/23 09:05:11;;;;;;;22.95;18.30;;;20.60;99.90;;;;;;5095177;28;20346;-69
2021/06/23 09:07:41;;;;;;;20.67;18.60;;;20.50;99.90;;;;;;5095283;28;20028;-70
2021/06/23 09:10:18;;;;;;;22.10;17.98;;;20.40;99.90;;;;;;5095352;28;20378;-69
2021/06/23 09:13:06;;;;;;;20.50;17.55;;;20.50;99.90;;;;;;5077313;28;20434;-69
2021/06/23 09:15:41;;;;;;;18.98;16.75;;;20.60;99.90;;;;;;5095428;28;20021;-68
2021/06/23 09:18:21;;;;;;;19.38;16.00;;;20.70;99.90;;;;;;5076769;28;20034;-68
2021/06/23 09:20:50;;;;;;;16.00;14.40;;;20.80;99.90;;;;;;5076830;28;20061;-69
2021/06/23 09:23:16;;;;;;;18.38;15.75;;;21.00;99.90;;;;;;5076592;28;20056;-69
2021/06/23 09:25:45;;;;;;;16.92;15.15;;;20.90;99.90;;;;;;5076746;28;20093;-69
2021/06/23 09:28:18;;;;;;;15.60;13.93;;;21.00;99.90;;;;;;5094825;28;20521;-68
2021/06/23 09:30:48;;;;;;;14.15;12.73;;;21.00;99.90;;;;;;5094968;28;20020;-68
2021/06/23 09:33:24;;;;;;;13.77;12.30;;;21.50;99.90;;;;;;5094900;28;20020;-68
2021/06/23 09:35:56;;;;;;;14.15;12.65;;;22.10;99.90;;;;;;5094902;28;20070;-69
2021/06/23 09:38:46;;;;;;;13.93;12.48;;;22.50;99.90;;;;;;5076354;28;20028;-69
2021/06/23 09:41:37;;;;;;;12.13;10.93;;;23.50;99.90;;;;;;5076475;28;20043;-70
2021/06/23 09:44:05;;;;;;;11.13;10.00;;;26.20;99.90;;;;;;5094573;28;20028;-70
2021/06/23 09:46:38;;;;;;;10.55;9.50;;;27.50;99.90;;;;;;5095366;28;20510;-70
2021/06/23 09:49:03;;;;;;;10.30;9.30;;;27.10;99.90;;;;;;5094544;28;20058;-69
2021/06/23 09:51:36;;;;;;;9.93;9.07;;;26.60;99.90;;;;;;5094476;28;20020;-68
2021/06/23 09:54:02;;;;;;;11.05;8.60;;;26.20;99.90;;;;;;5095744;28;20012;-69
2021/06/23 09:56:37;;;;;;;8.38;7.30;;;27.10;99.90;;;;;;5094588;28;20468;-70
2021/06/23 09:59:04;;;;;;;6.82;5.63;;;28.30;99.50;;;;;;5094456;28;20027;-70
2021/06/23 10:01:36;;;;;;;6.55;5.65;;;29.80;96.70;;;;;;5094401;28;20028;-69
2021/06/23 10:04:08;;;;;;;8.57;6.15;;;31.10;94.80;;;;;;5076083;28;20393;-69
2021/06/23 10:06:43;;;;;;;6.93;6.25;;;32.60;92.90;;;;;;5094191;28;20023;-69
2021/06/23 10:09:24;;;;;;;6.95;6.35;;;33.70;90.50;;;;;;5075828;28;20396;-69
2021/06/23 10:12:02;;;;;;;6.13;5.53;;;33.10;87.20;;;;;;5075708;28;20028;-69
2021/06/23 10:14:31;;;;;;;7.60;6.47;;;32.60;86.40;;;;;;5093396;28;20027;-69
2021/06/23 10:17:02;;;;;;;6.22;5.63;;;31.40;90.10;;;;;;5094104;28;20019;-69
2021/06/23 10:19:30;;;;;;;6.32;5.78;;;30.00;91.10;;;;;;5094059;28;20031;-69
2021/06/23 10:21:58;;;;;;;5.82;5.32;;;29.00;93.30;;;;;;5075642;28;20430;-69
2021/06/23 10:24:27;;;;;;;7.90;5.20;;;28.20;93.20;;;;;;5094990;28;20028;-69
2021/06/23 10:26:53;;;;;;;5.13;4.60;;;27.60;94.20;;;;;;5094538;28;20024;-69
2021/06/23 10:29:26;;;;;;;5.05;4.65;;;27.40;95.20;;;;;;5093858;28;20028;-68
2021/06/23 10:31:52;;;;;;;4.88;4.47;;;27.20;95.10;;;;;;5094095;28;20020;-69
2021/06/23 10:34:19;;;;;;;7.25;4.70;;;27.80;95.20;;;;;;5093742;28;20016;-69
2021/06/23 10:36:45;;;;;;;5.20;4.70;;;28.20;94.90;;;;;;5093651;28;20091;-69
2021/06/23 10:39:12;;;;;;;5.40;5.00;;;29.00;94.20;;;;;;5093965;28;20054;-70
2021/06/23 10:41:40;;;;;;;6.43;4.43;;;28.80;92.90;;;;;;5075442;28;20476;-70
2021/06/23 10:44:31;;;;;;;5.97;4.43;;;28.90;92.60;;;;;;5093798;28;20024;-69
2021/06/23 10:46:59;;;;;;;4.88;4.40;;;28.60;92.50;;;;;;5093917;28;20096;-70
2021/06/23 10:49:46;;;;;;;4.78;4.13;;;28.00;93.50;;;;;;5093391;28;20108;-71
2021/06/23 10:52:21;;;;;;;4.53;4.13;;;29.10;92.90;;;;;;5093907;28;20473;-70
2021/06/23 10:54:50;;;;;;;4.90;4.50;;;30.60;91.50;;;;;;5075256;28;20115;-68
2021/06/23 10:57:24;;;;;;;5.63;5.13;;;30.40;91.10;;;;;;5093144;28;20435;-70
2021/06/23 10:59:52;;;;;;;4.70;3.55;;;30.20;91.00;;;;;;5093506;28;20491;-69
2021/06/23 11:02:25;;;;;;;4.85;3.75;;;29.60;91.00;;;;;;5093398;28;20028;-68
2021/06/23 11:04:57;;;;;;;4.30;3.90;;;29.00;91.20;;;;;;5074975;28;20032;-68
2021/06/23 11:07:41;;;;;;;4.65;4.25;;;28.20;92.90;;;;;;5075238;28;20020;-68
2021/06/23 11:10:13;;;;;;;4.38;3.97;;;27.40;93.00;;;;;;5093143;28;20036;-68
2021/06/23 11:12:48;;;;;;;4.65;4.25;;;26.70;94.00;;;;;;5093534;28;20453;-68
2021/06/23 11:15:20;;;;;;;6.88;4.93;;;26.40;94.70;;;;;;5093440;28;20412;-70
2021/06/23 11:17:48;;;;;;;6.18;5.65;;;26.00;96.30;;;;;;5075316;28;20024;-69
2021/06/23 11:20:20;;;;;;;6.53;5.70;;;25.70;97.40;;;;;;5093026;28;20024;-69
2021/06/23 11:22:46;;;;;;;6.00;5.40;;;25.80;98.00;;;;;;5076273;28;20036;-69
2021/06/23 11:25:34;;;;;;;6.43;5.47;;;25.60;97.60;;;;;;5095797;28;20043;-69
2021/06/23 11:28:08;;;;;;;7.55;5.60;;;25.50;98.80;;;;;;5097244;28;20028;-70
2021/06/23 11:31:09;;;;;;;5.63;5.10;;;25.30;98.70;;;;;;5097272;28;20016;-68
2021/06/23 11:33:37;;;;;;;5.82;5.32;;;25.30;98.90;;;;;;5097661;28;20027;-69
2021/06/23 11:36:04;;;;;;;9.45;5.75;;;25.40;99.10;;;;;;5097129;28;20028;-69
2021/06/23 11:38:30;;;;;;;5.82;5.22;;;25.60;98.70;;;;;;5097277;28;20025;-68
2021/06/23 11:40:56;;;;;;;;;;;25.60;99.20;;;;;;5098808;28;20076;-68
2021/06/23 11:43:23;;;;;;;8.32;5.93;;;25.80;99.00;;;;;;5098252;28;19904;-68
2021/06/23 11:45:50;;;;;;;5.30;4.47;;;25.70;99.60;;;;;;5097915;28;20028;-68
2021/06/23 11:48:16;;;;;;;5.68;3.97;;;25.50;98.30;;;;;;5097093;28;20121;-69
2021/06/23 11:50:43;;;;;;;5.00;4.10;;;25.30;98.30;;;;;;5078592;28;20074;-68
2021/06/23 11:53:11;;;;;;;5.65;5.15;;;25.10;98.30;;;;;;5078557;28;20389;-68
2021/06/23 11:55:37;;;;;;;6.93;6.22;;;25.30;99.40;;;;;;5078578;28;20020;-69
2021/06/23 11:58:04;;;;;;;7.47;6.32;;;25.40;99.80;;;;;;5097437;28;20059;-68
2021/06/23 12:00:32;;;;;;;7.95;6.53;;;25.70;99.40;;;;;;5097126;28;20028;-68
2021/06/23 12:02:59;;;;;;;8.77;6.10;;;26.00;99.10;;;;;;5096518;28;20024;-69
2021/06/23 12:05:29;;;;;;;7.65;5.97;;;26.10;98.90;;;;;;5097015;28;20021;-69
2021/06/23 12:07:55;;;;;;;8.15;6.10;;;26.30;98.80;;;;;;5097134;28;20031;-67
2021/06/23 12:10:23;;;;;;;6.35;5.07;;;26.10;98.20;;;;;;5097019;28;20039;-67
2021/06/23 12:12:49;;;;;;;5.80;5.20;;;25.80;98.50;;;;;;5097165;28;20061;-68
2021/06/23 12:15:17;;;;;;;6.63;4.93;;;25.40;98.30;;;;;;5096582;28;20016;-68
2021/06/23 12:17:44;;;;;;;6.75;5.05;;;25.20;99.30;;;;;;5078470;28;20107;-68
2021/06/23 12:20:10;;;;;;;7.30;6.57;;;25.30;99.80;;;;;;5096699;28;20024;-68
2021/06/23 12:22:38;;;;;;;6.38;5.60;;;25.40;99.90;;;;;;5096611;28;20027;-69
2021/06/23 12:25:06;;;;;;;5.78;5.20;;;25.40;99.90;;;;;;5078221;28;20477;-68
2021/06/23 12:27:31;;;;;;;7.35;5.80;;;25.60;99.80;;;;;;5096492;28;20478;-68
2021/06/23 12:29:57;;;;;;;;;;;25.50;98.60;;;;;;5096754;28;20043;-68
2021/06/23 12:32:23;;;;;;;5.75;5.15;;;25.50;98.90;;;;;;5096118;28;19911;-68
2021/06/23 12:34:49;;;;;;;6.55;5.95;;;25.80;99.30;;;;;;5096306;28;20093;-68
2021/06/23 12:37:15;;;;;;;6.10;5.50;;;26.10;98.50;;;;;;5076981;28;20451;-68
2021/06/23 12:39:40;;;;;;;;;;;26.10;98.50;;;;;;5097759;28;20054;-68
2021/06/23 12:42:07;;;;;;;7.35;5.75;;;26.00;98.70;;;;;;5096756;28;20210;-67
2021/06/23 12:44:32;;;;;;;6.50;5.85;;;26.10;99.00;;;;;;5095908;28;20501;-68
2021/06/23 12:46:58;;;;;;;;;;;25.90;98.80;;;;;;5078024;28;20061;-68
2021/06/23 12:49:24;;;;;;;6.53;5.15;;;25.90;99.50;;;;;;5095378;28;20041;-68
2021/06/23 12:51:51;;;;;;;5.93;5.28;;;26.10;99.20;;;;;;5095598;28;20377;-68